KDLH/DLH METAR and TAF weather

Enter ICAO airport designator
Station Type Date Time Source
KDLH METAR 2019/10/21 22:05 UTC NOAA

KDLH 212205Z 07028G44KT 1 1/2SM RA OVC007 09/06 A2919 RMK AO2 PK WND 07044/2202 P0000 T00940061


Station Type Date Time Source
KDLH Decoded METAR 2019/10/21 22:05 UTC NOAA

Duluth, Duluth International Airport, MN, United States (KDLH) 46-50-34N 092-13-34W 435M
Oct 21, 2019 - 06:05 PM EDT / 2019.10.21 2205 UTC
Wind: from the ENE (070 degrees) at 32 MPH (28 KT) gusting to 51 MPH (44 KT):0
Visibility: 1 1/2 mile(s):0
Sky conditions: overcast
Weather: rain
Precipitation last hour: A trace
Temperature: 48.9 F (9.4 C)
Dew Point: 43.0 F (6.1 C)
Relative Humidity: 79%
Pressure (altimeter): 29.19 in. Hg (988 hPa)
ob: KDLH 212205Z 07028G44KT 1 1/2SM RA OVC007 09/06 A2919 RMK AO2 PK WND 07044/2202 P0000 T00940061
cycle: 22

Station Type Date Time Source
KDLH TAF 2019/10/21 21:51 UTC NOAA

TAF
AMD KDLH 212047Z 2121/2218 07030G42KT 1 1/2SM RA OVC006
TEMPO 2121/2123 07035G50KT
FM212300 06028G42KT 2SM -RA OVC006
FM220300 03015G30KT 4SM -SHRA BR OVC004
FM221100 33010G16KT 4SM -SHRA BR OVC006
FM221500 31015G23KT 5SM -SHRA OVC020

Example: see airport list